sensor_id;sensor_type;location;lat;lon;timestamp;P1;durP1;ratioP1;P2;durP2;ratioP2
8532;SDS011;4304;53.876;10.662;2022-08-01T00:02:24;5.22;;;4.68;;
8532;SDS011;4304;53.876;10.662;2022-08-01T00:04:49;6.35;;;5.00;;
8532;SDS011;4304;53.876;10.662;2022-08-01T00:07:15;6.45;;;4.93;;
8532;SDS011;4304;53.876;10.662;2022-08-01T00:09:40;8.73;;;4.60;;
8532;SDS011;4304;53.876;10.662;2022-08-01T00:12:05;6.68;;;5.47;;
8532;SDS011;4304;53.876;10.662;2022-08-01T00:14:31;9.15;;;5.18;;
8532;SDS011;4304;53.876;10.662;2022-08-01T00:16:56;5.50;;;4.93;;
8532;SDS011;4304;53.876;10.662;2022-08-01T00:19:21;6.90;;;4.72;;
8532;SDS011;4304;53.876;10.662;2022-08-01T00:21:46;6.00;;;5.05;;
8532;SDS011;4304;53.876;10.662;2022-08-01T00:24:12;8.88;;;5.47;;
8532;SDS011;4304;53.876;10.662;2022-08-01T00:26:37;6.63;;;5.45;;
8532;SDS011;4304;53.876;10.662;2022-08-01T00:29:02;7.60;;;5.60;;
8532;SDS011;4304;53.876;10.662;2022-08-01T00:31:28;5.85;;;5.22;;
8532;SDS011;4304;53.876;10.662;2022-08-01T00:33:53;8.38;;;6.05;;
8532;SDS011;4304;53.876;10.662;2022-08-01T00:36:18;6.57;;;5.45;;
8532;SDS011;4304;53.876;10.662;2022-08-01T00:38:44;6.47;;;5.53;;
8532;SDS011;4304;53.876;10.662;2022-08-01T00:41:09;7.65;;;5.50;;
8532;SDS011;4304;53.876;10.662;2022-08-01T00:43:34;9.48;;;5.95;;
8532;SDS011;4304;53.876;10.662;2022-08-01T00:46:00;8.93;;;6.22;;
8532;SDS011;4304;53.876;10.662;2022-08-01T00:48:25;8.77;;;6.65;;
8532;SDS011;4304;53.876;10.662;2022-08-01T00:50:51;8.32;;;6.68;;
8532;SDS011;4304;53.876;10.662;2022-08-01T00:53:16;9.85;;;6.45;;
8532;SDS011;4304;53.876;10.662;2022-08-01T00:55:42;8.43;;;7.00;;
8532;SDS011;4304;53.876;10.662;2022-08-01T00:58:07;11.88;;;6.57;;
8532;SDS011;4304;53.876;10.662;2022-08-01T01:00:34;10.43;;;7.43;;
8532;SDS011;4304;53.876;10.662;2022-08-01T01:03:00;14.40;;;7.80;;
8532;SDS011;4304;53.876;10.662;2022-08-01T01:05:26;9.43;;;7.53;;
8532;SDS011;4304;53.876;10.662;2022-08-01T01:08:02;8.95;;;7.40;;
8532;SDS011;4304;53.876;10.662;2022-08-01T01:10:38;10.68;;;7.70;;
8532;SDS011;4304;53.876;10.662;2022-08-01T01:13:11;11.68;;;7.45;;
8532;SDS011;4304;53.876;10.662;2022-08-01T01:18:36;11.00;;;8.30;;
8532;SDS011;4304;53.876;10.662;2022-08-01T01:29:28;10.20;;;7.78;;
8532;SDS011;4304;53.876;10.662;2022-08-01T01:31:59;14.13;;;9.27;;
8532;SDS011;4304;53.876;10.662;2022-08-01T01:34:29;13.32;;;9.25;;
8532;SDS011;4304;53.876;10.662;2022-08-01T01:36:59;10.38;;;8.63;;
8532;SDS011;4304;53.876;10.662;2022-08-01T01:39:27;12.35;;;9.05;;
8532;SDS011;4304;53.876;10.662;2022-08-01T01:41:55;12.25;;;8.52;;
8532;SDS011;4304;53.876;10.662;2022-08-01T01:44:22;13.55;;;9.13;;
8532;SDS011;4304;53.876;10.662;2022-08-01T01:46:49;14.45;;;9.10;;
8532;SDS011;4304;53.876;10.662;2022-08-01T01:49:16;15.43;;;9.25;;
8532;SDS011;4304;53.876;10.662;2022-08-01T01:51:47;14.60;;;9.18;;
8532;SDS011;4304;53.876;10.662;2022-08-01T01:54:15;12.70;;;8.70;;
8532;SDS011;4304;53.876;10.662;2022-08-01T01:56:40;12.75;;;8.68;;
8532;SDS011;4304;53.876;10.662;2022-08-01T01:59:13;15.07;;;9.18;;
8532;SDS011;4304;53.876;10.662;2022-08-01T02:01:49;17.08;;;9.13;;
8532;SDS011;4304;53.876;10.662;2022-08-01T02:04:17;13.00;;;9.48;;
8532;SDS011;4304;53.876;10.662;2022-08-01T02:06:45;14.68;;;9.35;;
8532;SDS011;4304;53.876;10.662;2022-08-01T02:09:12;13.88;;;8.80;;
8532;SDS011;4304;53.876;10.662;2022-08-01T02:11:41;13.05;;;9.18;;
8532;SDS011;4304;53.876;10.662;2022-08-01T02:14:07;11.73;;;8.75;;
8532;SDS011;4304;53.876;10.662;2022-08-01T02:16:35;15.65;;;9.85;;
8532;SDS011;4304;53.876;10.662;2022-08-01T02:19:01;12.52;;;9.20;;
8532;SDS011;4304;53.876;10.662;2022-08-01T02:21:29;13.38;;;9.43;;
8532;SDS011;4304;53.876;10.662;2022-08-01T02:26:25;21.15;;;9.60;;
8532;SDS011;4304;53.876;10.662;2022-08-01T02:28:59;15.90;;;10.07;;
8532;SDS011;4304;53.876;10.662;2022-08-01T02:31:31;16.55;;;10.15;;
8532;SDS011;4304;53.876;10.662;2022-08-01T02:34:00;16.52;;;10.10;;
8532;SDS011;4304;53.876;10.662;2022-08-01T02:36:29;14.00;;;10.48;;
8532;SDS011;4304;53.876;10.662;2022-08-01T02:38:58;15.68;;;10.15;;
8532;SDS011;4304;53.876;10.662;2022-08-01T02:41:25;16.58;;;10.32;;
8532;SDS011;4304;53.876;10.662;2022-08-01T02:43:53;19.05;;;10.05;;
8532;SDS011;4304;53.876;10.662;2022-08-01T02:46:27;20.77;;;11.18;;
8532;SDS011;4304;53.876;10.662;2022-08-01T02:48:58;17.98;;;11.07;;
8532;SDS011;4304;53.876;10.662;2022-08-01T02:51:25;15.90;;;10.60;;
8532;SDS011;4304;53.876;10.662;2022-08-01T02:53:52;19.00;;;10.80;;
8532;SDS011;4304;53.876;10.662;2022-08-01T02:56:18;20.33;;;10.93;;
8532;SDS011;4304;53.876;10.662;2022-08-01T02:58:46;22.23;;;12.05;;
8532;SDS011;4304;53.876;10.662;2022-08-01T03:01:14;17.88;;;10.63;;
8532;SDS011;4304;53.876;10.662;2022-08-01T03:03:41;19.73;;;10.73;;
8532;SDS011;4304;53.876;10.662;2022-08-01T03:06:07;30.38;;;10.95;;
8532;SDS011;4304;53.876;10.662;2022-08-01T03:08:34;21.17;;;10.75;;
8532;SDS011;4304;53.876;10.662;2022-08-01T03:11:00;21.13;;;10.65;;
8532;SDS011;4304;53.876;10.662;2022-08-01T03:13:27;18.10;;;9.60;;
8532;SDS011;4304;53.876;10.662;2022-08-01T03:15:54;18.77;;;10.23;;
8532;SDS011;4304;53.876;10.662;2022-08-01T03:18:21;25.13;;;10.95;;
8532;SDS011;4304;53.876;10.662;2022-08-01T03:20:49;23.92;;;10.73;;
8532;SDS011;4304;53.876;10.662;2022-08-01T03:23:17;15.23;;;9.70;;
8532;SDS011;4304;53.876;10.662;2022-08-01T03:25:44;19.17;;;10.25;;
8532;SDS011;4304;53.876;10.662;2022-08-01T03:28:12;15.93;;;9.70;;
8532;SDS011;4304;53.876;10.662;2022-08-01T03:30:38;19.90;;;10.60;;
8532;SDS011;4304;53.876;10.662;2022-08-01T03:33:05;16.38;;;9.77;;
8532;SDS011;4304;53.876;10.662;2022-08-01T03:35:34;17.20;;;9.02;;
8532;SDS011;4304;53.876;10.662;2022-08-01T03:38:04;16.67;;;8.88;;
8532;SDS011;4304;53.876;10.662;2022-08-01T03:40:35;16.42;;;10.27;;
8532;SDS011;4304;53.876;10.662;2022-08-01T03:43:26;18.25;;;9.95;;
8532;SDS011;4304;53.876;10.662;2022-08-01T03:45:58;18.50;;;10.10;;
8532;SDS011;4304;53.876;10.662;2022-08-01T03:48:29;16.00;;;9.25;;
8532;SDS011;4304;53.876;10.662;2022-08-01T03:50:59;16.50;;;9.70;;
8532;SDS011;4304;53.876;10.662;2022-08-01T03:53:26;16.17;;;10.60;;
8532;SDS011;4304;53.876;10.662;2022-08-01T03:55:54;18.50;;;10.10;;
8532;SDS011;4304;53.876;10.662;2022-08-01T03:58:21;20.05;;;9.80;;
8532;SDS011;4304;53.876;10.662;2022-08-01T04:00:46;16.35;;;9.65;;
8532;SDS011;4304;53.876;10.662;2022-08-01T04:03:13;16.17;;;10.35;;
8532;SDS011;4304;53.876;10.662;2022-08-01T04:05:42;21.33;;;10.18;;
8532;SDS011;4304;53.876;10.662;2022-08-01T04:08:09;18.35;;;10.20;;
8532;SDS011;4304;53.876;10.662;2022-08-01T04:10:34;14.63;;;9.02;;
8532;SDS011;4304;53.876;10.662;2022-08-01T04:13:05;18.20;;;9.93;;
8532;SDS011;4304;53.876;10.662;2022-08-01T04:15:31;15.85;;;9.88;;
8532;SDS011;4304;53.876;10.662;2022-08-01T04:17:56;15.77;;;8.93;;
8532;SDS011;4304;53.876;10.662;2022-08-01T04:20:22;16.27;;;10.18;;
8532;SDS011;4304;53.876;10.662;2022-08-01T04:22:47;15.68;;;10.32;;
8532;SDS011;4304;53.876;10.662;2022-08-01T04:25:17;16.55;;;10.52;;
8532;SDS011;4304;53.876;10.662;2022-08-01T04:27:49;19.95;;;11.30;;
8532;SDS011;4304;53.876;10.662;2022-08-01T04:30:17;16.83;;;10.38;;
8532;SDS011;4304;53.876;10.662;2022-08-01T04:32:45;16.00;;;10.32;;
8532;SDS011;4304;53.876;10.662;2022-08-01T04:35:12;16.52;;;10.75;;
8532;SDS011;4304;53.876;10.662;2022-08-01T04:37:41;16.15;;;10.40;;
8532;SDS011;4304;53.876;10.662;2022-08-01T04:40:09;18.77;;;10.27;;
8532;SDS011;4304;53.876;10.662;2022-08-01T04:42:36;18.88;;;10.57;;
8532;SDS011;4304;53.876;10.662;2022-08-01T04:45:01;17.02;;;11.82;;
8532;SDS011;4304;53.876;10.662;2022-08-01T04:47:27;16.45;;;11.02;;
8532;SDS011;4304;53.876;10.662;2022-08-01T04:49:54;16.42;;;9.98;;
8532;SDS011;4304;53.876;10.662;2022-08-01T04:52:21;21.23;;;11.02;;
8532;SDS011;4304;53.876;10.662;2022-08-01T04:54:47;17.08;;;10.60;;
8532;SDS011;4304;53.876;10.662;2022-08-01T04:57:12;23.60;;;10.75;;
8532;SDS011;4304;53.876;10.662;2022-08-01T04:59:38;15.68;;;10.07;;
8532;SDS011;4304;53.876;10.662;2022-08-01T05:02:08;15.23;;;10.73;;
8532;SDS011;4304;53.876;10.662;2022-08-01T05:04:43;15.40;;;9.68;;
8532;SDS011;4304;53.876;10.662;2022-08-01T05:07:10;15.07;;;10.35;;
8532;SDS011;4304;53.876;10.662;2022-08-01T05:09:37;12.27;;;9.05;;
8532;SDS011;4304;53.876;10.662;2022-08-01T05:12:03;14.38;;;9.50;;
8532;SDS011;4304;53.876;10.662;2022-08-01T05:14:30;15.05;;;9.73;;
8532;SDS011;4304;53.876;10.662;2022-08-01T05:16:57;14.20;;;9.75;;
8532;SDS011;4304;53.876;10.662;2022-08-01T05:19:24;14.68;;;9.77;;
8532;SDS011;4304;53.876;10.662;2022-08-01T05:21:50;13.02;;;9.13;;
8532;SDS011;4304;53.876;10.662;2022-08-01T05:24:16;13.40;;;8.65;;
8532;SDS011;4304;53.876;10.662;2022-08-01T05:26:41;13.00;;;8.52;;
8532;SDS011;4304;53.876;10.662;2022-08-01T05:29:09;13.50;;;8.43;;
8532;SDS011;4304;53.876;10.662;2022-08-01T05:31:34;11.00;;;8.48;;
8532;SDS011;4304;53.876;10.662;2022-08-01T05:34:00;12.10;;;7.90;;
8532;SDS011;4304;53.876;10.662;2022-08-01T05:36:27;10.02;;;7.00;;
8532;SDS011;4304;53.876;10.662;2022-08-01T05:38:52;10.40;;;7.50;;
8532;SDS011;4304;53.876;10.662;2022-08-01T05:41:17;8.75;;;6.40;;
8532;SDS011;4304;53.876;10.662;2022-08-01T05:43:43;8.32;;;5.95;;
8532;SDS011;4304;53.876;10.662;2022-08-01T05:46:08;7.05;;;5.47;;
8532;SDS011;4304;53.876;10.662;2022-08-01T05:48:34;9.00;;;5.03;;
8532;SDS011;4304;53.876;10.662;2022-08-01T05:50:59;6.63;;;4.55;;
8532;SDS011;4304;53.876;10.662;2022-08-01T05:53:25;8.15;;;4.07;;
8532;SDS011;4304;53.876;10.662;2022-08-01T05:55:51;5.28;;;3.22;;
8532;SDS011;4304;53.876;10.662;2022-08-01T05:58:16;6.95;;;2.95;;
8532;SDS011;4304;53.876;10.662;2022-08-01T06:00:41;4.22;;;2.75;;
8532;SDS011;4304;53.876;10.662;2022-08-01T06:03:07;3.95;;;3.10;;
8532;SDS011;4304;53.876;10.662;2022-08-01T06:05:32;4.60;;;2.85;;
8532;SDS011;4304;53.876;10.662;2022-08-01T06:07:57;3.70;;;3.10;;
8532;SDS011;4304;53.876;10.662;2022-08-01T06:10:23;3.60;;;3.20;;
8532;SDS011;4304;53.876;10.662;2022-08-01T06:12:48;5.10;;;3.45;;
8532;SDS011;4304;53.876;10.662;2022-08-01T06:15:14;4.57;;;3.45;;
8532;SDS011;4304;53.876;10.662;2022-08-01T06:17:39;4.57;;;3.30;;
8532;SDS011;4304;53.876;10.662;2022-08-01T06:20:07;5.95;;;3.58;;
8532;SDS011;4304;53.876;10.662;2022-08-01T06:22:33;5.57;;;3.13;;
8532;SDS011;4304;53.876;10.662;2022-08-01T06:24:59;6.80;;;3.47;;
8532;SDS011;4304;53.876;10.662;2022-08-01T06:27:24;5.57;;;3.30;;
8532;SDS011;4304;53.876;10.662;2022-08-01T06:29:52;4.60;;;3.28;;
8532;SDS011;4304;53.876;10.662;2022-08-01T06:32:22;4.28;;;3.22;;
8532;SDS011;4304;53.876;10.662;2022-08-01T06:34:50;4.57;;;3.08;;
8532;SDS011;4304;53.876;10.662;2022-08-01T06:37:16;7.70;;;3.45;;
8532;SDS011;4304;53.876;10.662;2022-08-01T06:39:42;7.00;;;3.00;;
8532;SDS011;4304;53.876;10.662;2022-08-01T06:42:07;4.53;;;3.20;;
8532;SDS011;4304;53.876;10.662;2022-08-01T06:44:34;8.23;;;3.40;;
8532;SDS011;4304;53.876;10.662;2022-08-01T06:47:00;5.05;;;3.47;;
8532;SDS011;4304;53.876;10.662;2022-08-01T06:49:26;3.65;;;2.80;;
8532;SDS011;4304;53.876;10.662;2022-08-01T06:51:51;4.65;;;2.65;;
8532;SDS011;4304;53.876;10.662;2022-08-01T06:54:17;2.70;;;2.50;;
8532;SDS011;4304;53.876;10.662;2022-08-01T06:56:42;4.15;;;2.42;;
8532;SDS011;4304;53.876;10.662;2022-08-01T06:59:09;2.80;;;2.47;;
8532;SDS011;4304;53.876;10.662;2022-08-01T07:01:35;3.70;;;2.60;;
8532;SDS011;4304;53.876;10.662;2022-08-01T07:04:01;3.88;;;2.58;;
8532;SDS011;4304;53.876;10.662;2022-08-01T07:06:27;5.20;;;2.95;;
8532;SDS011;4304;53.876;10.662;2022-08-01T07:08:53;5.97;;;2.90;;
8532;SDS011;4304;53.876;10.662;2022-08-01T07:11:19;5.78;;;2.90;;
8532;SDS011;4304;53.876;10.662;2022-08-01T07:13:45;3.38;;;3.08;;
8532;SDS011;4304;53.876;10.662;2022-08-01T07:16:10;3.88;;;2.95;;
8532;SDS011;4304;53.876;10.662;2022-08-01T07:18:40;4.30;;;3.17;;
8532;SDS011;4304;53.876;10.662;2022-08-01T07:21:06;4.00;;;3.10;;
8532;SDS011;4304;53.876;10.662;2022-08-01T07:23:31;3.85;;;3.28;;
8532;SDS011;4304;53.876;10.662;2022-08-01T07:25:57;6.68;;;3.47;;
8532;SDS011;4304;53.876;10.662;2022-08-01T07:28:22;5.05;;;2.97;;
8532;SDS011;4304;53.876;10.662;2022-08-01T07:30:47;3.75;;;3.08;;
8532;SDS011;4304;53.876;10.662;2022-08-01T07:33:13;4.10;;;3.47;;
8532;SDS011;4304;53.876;10.662;2022-08-01T07:35:38;7.13;;;3.47;;
8532;SDS011;4304;53.876;10.662;2022-08-01T07:38:05;4.88;;;3.80;;
8532;SDS011;4304;53.876;10.662;2022-08-01T07:40:31;6.28;;;3.65;;
8532;SDS011;4304;53.876;10.662;2022-08-01T07:42:57;5.18;;;3.28;;
8532;SDS011;4304;53.876;10.662;2022-08-01T07:45:22;4.63;;;3.17;;
8532;SDS011;4304;53.876;10.662;2022-08-01T07:47:48;5.40;;;3.58;;
8532;SDS011;4304;53.876;10.662;2022-08-01T07:50:15;6.78;;;3.78;;
8532;SDS011;4304;53.876;10.662;2022-08-01T07:52:41;7.57;;;4.20;;
8532;SDS011;4304;53.876;10.662;2022-08-01T07:55:07;7.80;;;4.47;;
8532;SDS011;4304;53.876;10.662;2022-08-01T07:57:34;4.00;;;3.50;;
8532;SDS011;4304;53.876;10.662;2022-08-01T07:59:59;4.65;;;3.55;;
8532;SDS011;4304;53.876;10.662;2022-08-01T08:02:25;6.10;;;3.92;;
8532;SDS011;4304;53.876;10.662;2022-08-01T08:04:50;9.25;;;3.58;;
8532;SDS011;4304;53.876;10.662;2022-08-01T08:07:16;5.53;;;3.20;;
8532;SDS011;4304;53.876;10.662;2022-08-01T08:09:41;4.00;;;3.50;;
8532;SDS011;4304;53.876;10.662;2022-08-01T08:12:07;6.03;;;3.13;;
8532;SDS011;4304;53.876;10.662;2022-08-01T08:14:32;5.88;;;3.65;;
8532;SDS011;4304;53.876;10.662;2022-08-01T08:16:59;4.88;;;3.25;;
8532;SDS011;4304;53.876;10.662;2022-08-01T08:19:24;5.10;;;2.92;;
8532;SDS011;4304;53.876;10.662;2022-08-01T08:21:50;5.07;;;2.78;;
8532;SDS011;4304;53.876;10.662;2022-08-01T08:24:15;5.63;;;3.03;;
8532;SDS011;4304;53.876;10.662;2022-08-01T08:26:47;4.88;;;3.22;;
8532;SDS011;4304;53.876;10.662;2022-08-01T08:29:13;4.65;;;3.30;;
8532;SDS011;4304;53.876;10.662;2022-08-01T08:31:38;4.03;;;3.13;;
8532;SDS011;4304;53.876;10.662;2022-08-01T08:34:04;12.10;;;3.75;;
8532;SDS011;4304;53.876;10.662;2022-08-01T08:36:30;5.68;;;3.50;;
8532;SDS011;4304;53.876;10.662;2022-08-01T08:38:55;6.55;;;3.10;;
8532;SDS011;4304;53.876;10.662;2022-08-01T08:41:21;4.90;;;3.40;;
8532;SDS011;4304;53.876;10.662;2022-08-01T08:43:47;4.50;;;3.00;;
8532;SDS011;4304;53.876;10.662;2022-08-01T08:46:13;4.38;;;2.70;;
8532;SDS011;4304;53.876;10.662;2022-08-01T08:48:40;2.85;;;2.47;;
8532;SDS011;4304;53.876;10.662;2022-08-01T08:51:07;3.00;;;2.70;;
8532;SDS011;4304;53.876;10.662;2022-08-01T08:53:33;2.88;;;2.30;;
8532;SDS011;4304;53.876;10.662;2022-08-01T08:56:00;4.82;;;2.00;;
8532;SDS011;4304;53.876;10.662;2022-08-01T08:58:27;5.03;;;2.10;;
8532;SDS011;4304;53.876;10.662;2022-08-01T09:00:53;2.30;;;2.00;;
8532;SDS011;4304;53.876;10.662;2022-08-01T09:03:19;2.92;;;1.92;;
8532;SDS011;4304;53.876;10.662;2022-08-01T09:05:45;2.40;;;2.20;;
8532;SDS011;4304;53.876;10.662;2022-08-01T09:08:10;2.25;;;2.05;;
8532;SDS011;4304;53.876;10.662;2022-08-01T09:10:37;11.77;;;2.25;;
8532;SDS011;4304;53.876;10.662;2022-08-01T09:13:03;5.30;;;2.00;;
8532;SDS011;4304;53.876;10.662;2022-08-01T09:18:04;2.67;;;2.20;;
8532;SDS011;4304;53.876;10.662;2022-08-01T09:20:29;5.90;;;2.47;;
8532;SDS011;4304;53.876;10.662;2022-08-01T09:22:55;4.72;;;2.25;;
8532;SDS011;4304;53.876;10.662;2022-08-01T09:25:20;6.38;;;2.28;;
8532;SDS011;4304;53.876;10.662;2022-08-01T09:27:46;5.32;;;2.10;;
8532;SDS011;4304;53.876;10.662;2022-08-01T09:30:15;4.03;;;2.53;;
8532;SDS011;4304;53.876;10.662;2022-08-01T09:32:54;5.32;;;2.50;;
8532;SDS011;4304;53.876;10.662;2022-08-01T09:35:30;6.13;;;2.40;;
8532;SDS011;4304;53.876;10.662;2022-08-01T09:38:12;5.97;;;2.67;;
8532;SDS011;4304;53.876;10.662;2022-08-01T09:40:50;3.40;;;2.60;;
8532;SDS011;4304;53.876;10.662;2022-08-01T09:43:26;10.18;;;2.55;;
8532;SDS011;4304;53.876;10.662;2022-08-01T09:45:54;3.97;;;2.17;;
8532;SDS011;4304;53.876;10.662;2022-08-01T09:48:21;3.05;;;2.40;;
8532;SDS011;4304;53.876;10.662;2022-08-01T09:50:47;5.47;;;2.22;;
8532;SDS011;4304;53.876;10.662;2022-08-01T09:53:14;5.50;;;2.30;;
8532;SDS011;4304;53.876;10.662;2022-08-01T09:55:40;5.07;;;2.50;;
8532;SDS011;4304;53.876;10.662;2022-08-01T09:58:07;4.85;;;2.63;;
8532;SDS011;4304;53.876;10.662;2022-08-01T10:00:33;8.23;;;2.25;;
8532;SDS011;4304;53.876;10.662;2022-08-01T10:03:00;9.00;;;2.40;;
8532;SDS011;4304;53.876;10.662;2022-08-01T10:05:44;3.42;;;1.75;;
8532;SDS011;4304;53.876;10.662;2022-08-01T10:08:09;2.63;;;1.63;;
8532;SDS011;4304;53.876;10.662;2022-08-01T10:10:37;2.45;;;1.60;;
8532;SDS011;4304;53.876;10.662;2022-08-01T10:13:03;5.15;;;1.95;;
8532;SDS011;4304;53.876;10.662;2022-08-01T10:15:29;2.47;;;1.38;;
8532;SDS011;4304;53.876;10.662;2022-08-01T10:17:57;3.28;;;1.63;;
8532;SDS011;4304;53.876;10.662;2022-08-01T10:20:27;5.70;;;1.45;;
8532;SDS011;4304;53.876;10.662;2022-08-01T10:22:54;6.35;;;1.63;;
8532;SDS011;4304;53.876;10.662;2022-08-01T10:25:22;3.25;;;1.60;;
8532;SDS011;4304;53.876;10.662;2022-08-01T10:27:49;8.70;;;5.25;;
8532;SDS011;4304;53.876;10.662;2022-08-01T10:30:17;5.47;;;2.25;;
8532;SDS011;4304;53.876;10.662;2022-08-01T10:32:42;3.70;;;1.50;;
8532;SDS011;4304;53.876;10.662;2022-08-01T10:35:10;3.15;;;1.73;;
8532;SDS011;4304;53.876;10.662;2022-08-01T10:37:42;6.22;;;1.80;;
8532;SDS011;4304;53.876;10.662;2022-08-01T10:40:08;3.38;;;1.80;;
8532;SDS011;4304;53.876;10.662;2022-08-01T10:42:38;3.22;;;1.60;;
8532;SDS011;4304;53.876;10.662;2022-08-01T10:45:05;2.67;;;1.77;;
8532;SDS011;4304;53.876;10.662;2022-08-01T10:47:37;7.55;;;1.45;;
8532;SDS011;4304;53.876;10.662;2022-08-01T10:58:20;5.05;;;1.42;;
8532;SDS011;4304;53.876;10.662;2022-08-01T11:01:13;3.25;;;1.60;;
8532;SDS011;4304;53.876;10.662;2022-08-01T11:03:37;5.05;;;1.40;;
8532;SDS011;4304;53.876;10.662;2022-08-01T11:06:03;7.18;;;1.75;;
8532;SDS011;4304;53.876;10.662;2022-08-01T11:08:28;3.97;;;1.45;;
8532;SDS011;4304;53.876;10.662;2022-08-01T11:11:01;5.68;;;1.60;;
8532;SDS011;4304;53.876;10.662;2022-08-01T11:16:29;2.53;;;1.10;;
8532;SDS011;4304;53.876;10.662;2022-08-01T11:18:58;3.55;;;0.85;;
8532;SDS011;4304;53.876;10.662;2022-08-01T11:24:33;7.65;;;1.35;;
8532;SDS011;4304;53.876;10.662;2022-08-01T11:27:21;2.75;;;1.35;;
8532;SDS011;4304;53.876;10.662;2022-08-01T11:35:17;4.97;;;1.33;;
8532;SDS011;4304;53.876;10.662;2022-08-01T11:37:44;4.97;;;1.30;;
8532;SDS011;4304;53.876;10.662;2022-08-01T11:40:16;5.82;;;1.70;;
8532;SDS011;4304;53.876;10.662;2022-08-01T11:42:43;4.55;;;1.45;;
8532;SDS011;4304;53.876;10.662;2022-08-01T11:45:08;14.65;;;1.88;;
8532;SDS011;4304;53.876;10.662;2022-08-01T11:47:47;4.00;;;1.05;;
8532;SDS011;4304;53.876;10.662;2022-08-01T11:52:57;3.60;;;1.23;;
8532;SDS011;4304;53.876;10.662;2022-08-01T11:55:24;4.50;;;1.40;;
8532;SDS011;4304;53.876;10.662;2022-08-01T11:57:57;4.60;;;1.27;;
8532;SDS011;4304;53.876;10.662;2022-08-01T12:00:24;6.07;;;1.40;;
8532;SDS011;4304;53.876;10.662;2022-08-01T12:03:23;3.88;;;1.20;;
8532;SDS011;4304;53.876;10.662;2022-08-01T12:05:43;3.13;;;1.10;;
8532;SDS011;4304;53.876;10.662;2022-08-01T12:08:09;3.28;;;1.13;;
8532;SDS011;4304;53.876;10.662;2022-08-01T12:10:34;5.15;;;1.30;;
8532;SDS011;4304;53.876;10.662;2022-08-01T12:13:04;1.45;;;1.02;;
8532;SDS011;4304;53.876;10.662;2022-08-01T12:15:34;3.15;;;1.10;;
8532;SDS011;4304;53.876;10.662;2022-08-01T12:18:01;3.80;;;1.20;;
8532;SDS011;4304;53.876;10.662;2022-08-01T12:20:30;1.90;;;1.00;;
8532;SDS011;4304;53.876;10.662;2022-08-01T12:22:59;2.95;;;1.08;;
8532;SDS011;4304;53.876;10.662;2022-08-01T12:25:26;2.35;;;1.10;;
8532;SDS011;4304;53.876;10.662;2022-08-01T12:27:51;3.08;;;1.00;;
8532;SDS011;4304;53.876;10.662;2022-08-01T12:30:18;2.78;;;1.05;;
8532;SDS011;4304;53.876;10.662;2022-08-01T12:32:50;4.28;;;1.30;;
8532;SDS011;4304;53.876;10.662;2022-08-01T12:35:17;4.32;;;1.40;;
8532;SDS011;4304;53.876;10.662;2022-08-01T12:37:47;5.30;;;1.70;;
8532;SDS011;4304;53.876;10.662;2022-08-01T12:40:19;2.42;;;1.05;;
8532;SDS011;4304;53.876;10.662;2022-08-01T12:42:49;3.53;;;1.33;;
8532;SDS011;4304;53.876;10.662;2022-08-01T12:45:19;9.15;;;1.50;;
8532;SDS011;4304;53.876;10.662;2022-08-01T12:47:46;4.68;;;1.40;;
8532;SDS011;4304;53.876;10.662;2022-08-01T12:50:18;8.75;;;1.55;;
8532;SDS011;4304;53.876;10.662;2022-08-01T12:52:44;3.08;;;1.30;;
8532;SDS011;4304;53.876;10.662;2022-08-01T12:55:14;4.57;;;1.38;;
8532;SDS011;4304;53.876;10.662;2022-08-01T12:57:49;4.75;;;1.10;;
8532;SDS011;4304;53.876;10.662;2022-08-01T13:02:46;3.22;;;1.15;;
8532;SDS011;4304;53.876;10.662;2022-08-01T13:05:14;3.30;;;1.23;;
8532;SDS011;4304;53.876;10.662;2022-08-01T13:10:10;2.50;;;1.20;;
8532;SDS011;4304;53.876;10.662;2022-08-01T13:12:38;2.67;;;1.20;;
8532;SDS011;4304;53.876;10.662;2022-08-01T13:15:20;3.97;;;1.15;;
8532;SDS011;4304;53.876;10.662;2022-08-01T13:17:49;3.67;;;1.20;;
8532;SDS011;4304;53.876;10.662;2022-08-01T13:20:25;3.13;;;1.30;;
8532;SDS011;4304;53.876;10.662;2022-08-01T13:22:52;2.67;;;1.00;;
8532;SDS011;4304;53.876;10.662;2022-08-01T13:25:18;3.38;;;1.40;;
8532;SDS011;4304;53.876;10.662;2022-08-01T13:27:43;4.95;;;1.20;;
8532;SDS011;4304;53.876;10.662;2022-08-01T13:32:59;4.28;;;1.50;;
8532;SDS011;4304;53.876;10.662;2022-08-01T13:35:26;5.90;;;1.65;;
8532;SDS011;4304;53.876;10.662;2022-08-01T13:37:51;4.20;;;1.02;;
8532;SDS011;4304;53.876;10.662;2022-08-01T13:40:24;2.97;;;1.20;;
8532;SDS011;4304;53.876;10.662;2022-08-01T13:42:51;6.47;;;1.40;;
8532;SDS011;4304;53.876;10.662;2022-08-01T13:45:16;4.63;;;1.20;;
8532;SDS011;4304;53.876;10.662;2022-08-01T13:47:42;2.72;;;1.38;;
8532;SDS011;4304;53.876;10.662;2022-08-01T13:50:08;5.93;;;1.70;;
8532;SDS011;4304;53.876;10.662;2022-08-01T13:52:34;3.75;;;1.27;;
8532;SDS011;4304;53.876;10.662;2022-08-01T13:54:59;4.07;;;0.93;;
8532;SDS011;4304;53.876;10.662;2022-08-01T13:57:26;5.15;;;1.63;;
8532;SDS011;4304;53.876;10.662;2022-08-01T13:59:51;2.78;;;1.10;;
8532;SDS011;4304;53.876;10.662;2022-08-01T14:02:17;4.18;;;1.20;;
8532;SDS011;4304;53.876;10.662;2022-08-01T14:04:42;3.00;;;1.23;;
8532;SDS011;4304;53.876;10.662;2022-08-01T14:07:07;3.83;;;1.15;;
8532;SDS011;4304;53.876;10.662;2022-08-01T14:09:33;4.95;;;1.05;;
8532;SDS011;4304;53.876;10.662;2022-08-01T14:11:58;2.83;;;1.40;;
8532;SDS011;4304;53.876;10.662;2022-08-01T14:14:24;6.82;;;1.25;;
8532;SDS011;4304;53.876;10.662;2022-08-01T14:16:49;3.38;;;1.10;;
8532;SDS011;4304;53.876;10.662;2022-08-01T14:19:15;5.22;;;1.27;;
8532;SDS011;4304;53.876;10.662;2022-08-01T14:21:41;2.08;;;1.20;;
8532;SDS011;4304;53.876;10.662;2022-08-01T14:24:08;3.80;;;1.17;;
8532;SDS011;4304;53.876;10.662;2022-08-01T14:26:34;3.20;;;0.85;;
8532;SDS011;4304;53.876;10.662;2022-08-01T14:29:00;4.30;;;0.95;;
8532;SDS011;4304;53.876;10.662;2022-08-01T14:31:25;3.03;;;1.35;;
8532;SDS011;4304;53.876;10.662;2022-08-01T14:33:50;4.07;;;1.00;;
8532;SDS011;4304;53.876;10.662;2022-08-01T14:36:16;4.88;;;1.30;;
8532;SDS011;4304;53.876;10.662;2022-08-01T14:38:42;4.75;;;1.30;;
8532;SDS011;4304;53.876;10.662;2022-08-01T14:41:08;3.00;;;0.90;;
8532;SDS011;4304;53.876;10.662;2022-08-01T14:43:34;4.93;;;1.30;;
8532;SDS011;4304;53.876;10.662;2022-08-01T14:46:02;3.13;;;1.25;;
8532;SDS011;4304;53.876;10.662;2022-08-01T14:48:28;3.70;;;1.05;;
8532;SDS011;4304;53.876;10.662;2022-08-01T14:50:54;3.90;;;1.20;;
8532;SDS011;4304;53.876;10.662;2022-08-01T14:53:19;7.60;;;1.35;;
8532;SDS011;4304;53.876;10.662;2022-08-01T14:55:45;5.63;;;1.13;;
8532;SDS011;4304;53.876;10.662;2022-08-01T14:58:11;3.28;;;1.10;;
8532;SDS011;4304;53.876;10.662;2022-08-01T15:00:37;2.78;;;1.23;;
8532;SDS011;4304;53.876;10.662;2022-08-01T15:03:07;4.63;;;1.13;;
8532;SDS011;4304;53.876;10.662;2022-08-01T15:05:33;5.30;;;1.20;;
8532;SDS011;4304;53.876;10.662;2022-08-01T15:08:00;2.33;;;1.10;;
8532;SDS011;4304;53.876;10.662;2022-08-01T15:10:26;4.78;;;1.10;;
8532;SDS011;4304;53.876;10.662;2022-08-01T15:12:52;3.13;;;0.98;;
8532;SDS011;4304;53.876;10.662;2022-08-01T15:15:18;5.15;;;1.15;;
8532;SDS011;4304;53.876;10.662;2022-08-01T15:17:44;3.03;;;1.30;;
8532;SDS011;4304;53.876;10.662;2022-08-01T15:20:10;5.82;;;1.30;;
8532;SDS011;4304;53.876;10.662;2022-08-01T15:22:35;4.93;;;1.20;;
8532;SDS011;4304;53.876;10.662;2022-08-01T15:25:02;4.15;;;1.02;;
8532;SDS011;4304;53.876;10.662;2022-08-01T15:27:29;2.90;;;1.05;;
8532;SDS011;4304;53.876;10.662;2022-08-01T15:29:55;3.42;;;1.15;;
8532;SDS011;4304;53.876;10.662;2022-08-01T15:32:21;2.47;;;1.20;;
8532;SDS011;4304;53.876;10.662;2022-08-01T15:34:47;2.25;;;0.98;;
8532;SDS011;4304;53.876;10.662;2022-08-01T15:37:15;4.07;;;1.15;;
8532;SDS011;4304;53.876;10.662;2022-08-01T15:39:40;2.05;;;0.95;;
8532;SDS011;4304;53.876;10.662;2022-08-01T15:42:07;2.72;;;1.17;;
8532;SDS011;4304;53.876;10.662;2022-08-01T15:44:34;3.90;;;1.15;;